Time;durP1;ratioP1;P1;durP2;ratioP2;P2;SDS_P1;SDS_P2;PMS_P1;PMS_P2;Temp;Humidity;BMP_temperature;BMP_pressure;BME280_temperature;BME280_humidity;BME280_pressure;Samples;Min_cycle;Max_cycle;Signal;HPM_P1;HPM_P2
2023/01/22 00:01:38;;;;;;;;;1.00;1.00;;;;;20.13;59.08;101991.30;110154;1253;19338;-35
2023/01/22 00:04:05;;;;;;;;;2.00;2.00;;;;;20.13;58.85;101990.48;110112;1267;19104;-35
2023/01/22 00:06:32;;;;;;;;;1.00;1.00;;;;;20.14;58.70;101995.45;110053;1267;21604;-34
2023/01/22 00:09:02;;;;;;;;;1.00;1.00;;;;;20.13;58.85;101995.55;110042;1254;17871;-35
2023/01/22 00:11:29;;;;;;;;;3.00;2.00;;;;;20.13;58.90;101996.79;110033;1260;19878;-35
2023/01/22 00:13:57;;;;;;;;;3.00;3.00;;;;;20.13;58.80;101996.78;109955;1254;19702;-34
2023/01/22 00:16:24;;;;;;;;;2.33;2.33;;;;;20.12;58.82;101997.65;109993;1252;20581;-34
2023/01/22 00:18:51;;;;;;;;;1.00;1.00;;;;;20.13;59.12;101996.84;110032;1267;18743;-34
2023/01/22 00:21:19;;;;;;;;;3.00;3.00;;;;;20.12;58.78;101996.39;110045;1259;20058;-34
2023/01/22 00:23:46;;;;;;;;;3.00;2.00;;;;;20.11;58.82;101995.16;110065;1267;19437;-34
2023/01/22 00:26:14;;;;;;;;;1.00;1.00;;;;;20.11;58.94;101996.65;110002;1253;19936;-35
2023/01/22 00:28:41;;;;;;;;;1.00;1.00;;;;;20.11;59.02;101997.19;110000;1253;19288;-34
2023/01/22 00:31:09;;;;;;;;;2.00;1.00;;;;;20.11;58.85;101998.13;110088;1267;19466;-34
2023/01/22 00:33:36;;;;;;;;;1.00;1.00;;;;;20.11;58.84;101999.94;110104;1267;22190;-35
2023/01/22 00:36:03;;;;;;;;;1.00;1.00;;;;;20.11;58.90;101995.95;110075;1267;18258;-34
2023/01/22 00:38:31;;;;;;;;;1.00;1.00;;;;;20.11;58.76;101996.67;110060;1254;19848;-35
2023/01/22 00:40:58;;;;;;;;;2.00;1.00;;;;;20.10;58.75;101996.03;110063;1254;22776;-35
2023/01/22 00:43:25;;;;;;;;;1.50;1.50;;;;;20.09;58.85;101996.44;110084;1253;19726;-34
2023/01/22 00:45:53;;;;;;;;;1.00;1.00;;;;;20.10;58.80;101996.95;110051;1267;21520;-34
2023/01/22 00:48:20;;;;;;;;;1.00;1.00;;;;;20.09;58.88;101997.87;110065;1253;20801;-34
2023/01/22 00:50:47;;;;;;;;;1.00;1.00;;;;;20.09;58.77;101998.06;110071;1267;18529;-35
2023/01/22 00:53:15;;;;;;;;;2.00;2.00;;;;;20.10;58.81;102001.85;110063;1253;20105;-34
2023/01/22 00:55:42;;;;;;;;;2.00;2.00;;;;;20.11;58.76;102002.67;110094;1253;20803;-35
2023/01/22 00:58:09;;;;;;;;;3.00;1.00;;;;;20.10;58.63;102004.69;110080;1267;22802;-33
2023/01/22 01:00:37;;;;;;;;;1.00;1.00;;;;;20.11;58.68;102002.84;110114;1253;20524;-32
2023/01/22 01:05:49;;;;;;;;;3.00;2.00;;;;;20.09;58.56;102001.13;110107;1267;19617;-34
2023/01/22 01:08:17;;;;;;;;;1.00;1.00;;;;;20.09;58.64;102006.45;110081;1267;18665;-33
2023/01/22 01:10:44;;;;;;;;;3.50;3.00;;;;;20.08;58.66;102007.75;110092;1254;20725;-33
2023/01/22 01:13:11;;;;;;;;;1.00;1.00;;;;;20.09;58.57;102004.83;110087;1253;20723;-33
2023/01/22 01:15:39;;;;;;;;;1.00;1.00;;;;;20.09;58.61;102007.52;110087;1267;23313;-34
2023/01/22 01:18:07;;;;;;;;;1.00;1.00;;;;;20.09;58.62;102002.64;110121;1254;20734;-35
2023/01/22 01:20:35;;;;;;;;;2.00;1.00;;;;;20.09;58.75;102004.85;110088;1254;19611;-35
2023/01/22 01:23:02;;;;;;;;;3.00;3.00;;;;;20.09;58.57;102007.34;110056;1267;18624;-35
2023/01/22 01:25:29;;;;;;;;;3.50;1.00;;;;;20.09;58.41;102007.38;110025;1267;19257;-34
2023/01/22 01:27:57;;;;;;;;;1.00;1.00;;;;;20.08;58.69;102007.95;110116;1253;19667;-35
2023/01/22 01:30:24;;;;;;;;;3.00;3.00;;;;;20.08;58.65;102013.25;110097;1253;20093;-36
2023/01/22 01:32:51;;;;;;;;;1.00;1.00;;;;;20.08;58.52;102012.88;110102;1264;22046;-35
2023/01/22 01:35:19;;;;;;;;;1.00;1.00;;;;;20.08;58.27;102013.56;110084;1252;18383;-35
2023/01/22 01:37:46;;;;;;;;;1.00;1.00;;;;;20.07;58.38;102013.74;110093;1267;18859;-35
2023/01/22 01:40:13;;;;;;;;;1.00;1.00;;;;;20.08;58.44;102012.94;110067;1254;20757;-34
2023/01/22 01:42:41;;;;;;;;;1.00;1.00;;;;;20.07;58.55;102014.46;110094;1253;19694;-35
2023/01/22 01:45:08;;;;;;;;;1.00;1.00;;;;;20.07;58.53;102017.31;110075;1267;22220;-35
2023/01/22 01:47:35;;;;;;;;;1.00;1.00;;;;;20.07;58.47;102016.61;110089;1252;21993;-34
2023/01/22 01:50:03;;;;;;;;;1.00;1.00;;;;;20.07;58.52;102018.61;110092;1261;19553;-34
2023/01/22 01:52:30;;;;;;;;;1.00;1.00;;;;;20.06;58.53;102022.17;110082;1253;19901;-34
2023/01/22 01:54:57;;;;;;;;;1.00;1.00;;;;;20.06;58.49;102019.45;110089;1260;20761;-34
2023/01/22 01:57:25;;;;;;;;;1.00;1.00;;;;;20.06;58.45;102020.13;110080;1267;20214;-34
2023/01/22 01:59:52;;;;;;;;;3.00;3.00;;;;;20.05;58.39;102016.79;110040;1267;18758;-34
2023/01/22 02:02:19;;;;;;;;;2.00;1.00;;;;;20.05;58.41;102023.00;110069;1261;20728;-34
2023/01/22 02:04:47;;;;;;;;;1.00;1.00;;;;;20.05;58.32;102021.34;110076;1254;19819;-34
2023/01/22 02:07:14;;;;;;;;;2.00;2.00;;;;;20.06;58.28;102020.53;110045;1267;19978;-34
2023/01/22 02:09:41;;;;;;;;;1.00;1.00;;;;;20.05;58.39;102023.19;110029;1267;19392;-34
2023/01/22 02:12:09;;;;;;;;;1.00;1.00;;;;;20.05;58.21;102024.63;110034;1252;19677;-34
2023/01/22 02:14:36;;;;;;;;;3.00;2.33;;;;;20.04;58.33;102025.64;110028;1267;18685;-34
2023/01/22 02:17:03;;;;;;;;;3.00;3.00;;;;;20.04;58.35;102025.96;110057;1254;20801;-34
2023/01/22 02:19:31;;;;;;;;;1.00;1.00;;;;;20.03;58.41;102031.31;110084;1267;19885;-34
2023/01/22 02:21:58;;;;;;;;;1.00;1.00;;;;;20.04;58.28;102030.49;110090;1267;18607;-35
2023/01/22 02:24:25;;;;;;;;;3.00;3.00;;;;;20.03;58.36;102032.23;110090;1267;19340;-35
2023/01/22 02:26:53;;;;;;;;;1.00;1.00;;;;;20.03;58.33;102030.60;110064;1252;21352;-35
2023/01/22 02:29:20;;;;;;;;;2.33;2.33;;;;;20.02;58.37;102033.90;110093;1252;19999;-35
2023/01/22 02:31:47;;;;;;;;;1.00;1.00;;;;;20.03;58.35;102029.83;110021;1253;20759;-35
2023/01/22 02:34:15;;;;;;;;;1.00;1.00;;;;;20.04;58.06;102028.16;110065;1267;18400;-35
2023/01/22 02:36:42;;;;;;;;;3.00;3.00;;;;;20.04;58.25;102029.61;109938;1260;21480;-34
2023/01/22 02:39:09;;;;;;;;;1.00;1.00;;;;;20.03;58.19;102033.33;109934;1267;19260;-36
2023/01/22 02:41:37;;;;;;;;;1.00;1.00;;;;;20.05;58.17;102034.23;110063;1267;22226;-33
2023/01/22 02:44:06;;;;;;;;;3.00;3.00;;;;;20.03;58.31;102032.95;110091;1254;20048;-34
2023/01/22 02:46:33;;;;;;;;;3.00;3.00;;;;;20.03;58.15;102037.45;110107;1253;22573;-34
2023/01/22 02:49:00;;;;;;;;;1.00;1.00;;;;;20.02;58.13;102046.27;110107;1253;19620;-34
2023/01/22 02:51:28;;;;;;;;;1.00;1.00;;;;;20.03;58.28;102046.73;110099;1257;20000;-34
2023/01/22 02:53:55;;;;;;;;;1.00;1.00;;;;;20.02;58.07;102051.54;110091;1267;19356;-34
2023/01/22 02:56:23;;;;;;;;;4.00;3.00;;;;;20.02;58.14;102051.69;110087;1252;21399;-34
2023/01/22 02:58:50;;;;;;;;;3.00;3.00;;;;;20.02;58.20;102056.62;110105;1267;18660;-33
2023/01/22 03:01:19;;;;;;;;;1.00;1.00;;;;;20.01;57.99;102056.13;110125;1267;19679;-33
2023/01/22 03:03:46;;;;;;;;;1.00;1.00;;;;;20.01;58.14;102055.41;110102;1254;22098;-33
2023/01/22 03:06:15;;;;;;;;;;;;;;;20.00;58.15;102061.12;110068;1267;18497;-33
2023/01/22 03:08:42;;;;;;;;;1.00;1.00;;;;;20.00;58.18;102060.38;109998;1253;22206;-33
2023/01/22 03:11:09;;;;;;;;;1.00;1.00;;;;;20.01;58.14;102062.52;110029;1254;19374;-33
2023/01/22 03:21:52;;;;;;;;;3.00;3.00;;;;;19.99;58.11;102061.74;110080;1252;20141;-35
2023/01/22 03:24:19;;;;;;;;;1.00;1.00;;;;;19.99;57.94;102066.83;110112;1267;19618;-35
2023/01/22 03:26:46;;;;;;;;;1.00;1.00;;;;;20.00;57.96;102066.02;110089;1254;19638;-34
2023/01/22 03:29:14;;;;;;;;;3.00;3.00;;;;;20.00;58.03;102064.61;110088;1254;18701;-34
2023/01/22 03:31:41;;;;;;;;;;;;;;;20.00;57.95;102069.48;110093;1254;20794;-34
2023/01/22 03:34:08;;;;;;;;;1.00;1.00;;;;;19.99;57.97;102074.24;110107;1267;18370;-35
2023/01/22 03:36:36;;;;;;;;;1.00;1.00;;;;;20.01;58.05;102077.22;110110;1267;22821;-34
2023/01/22 03:39:03;;;;;;;;;1.00;1.00;;;;;19.99;58.08;102076.42;110147;1267;19317;-34
2023/01/22 03:41:30;;;;;;;;;3.00;1.00;;;;;19.99;58.10;102086.62;110099;1267;18517;-36
2023/01/22 03:43:57;;;;;;;;;1.00;1.00;;;;;19.98;57.87;102080.91;110107;1254;21145;-35
2023/01/22 03:46:25;;;;;;;;;3.00;3.00;;;;;19.98;57.92;102086.20;110114;1253;20733;-34
2023/01/22 03:48:52;;;;;;;;;1.00;1.00;;;;;19.98;57.94;102087.98;110016;1263;20754;-33
2023/01/22 03:51:19;;;;;;;;;1.00;1.00;;;;;19.99;57.85;102095.92;109997;1252;20054;-33
2023/01/22 03:53:47;;;;;;;;;1.00;1.00;;;;;19.98;57.88;102093.77;110123;1263;20486;-33
2023/01/22 03:56:14;;;;;;;;;1.00;1.00;;;;;19.98;57.79;102092.36;110091;1254;19625;-34
2023/01/22 03:58:41;;;;;;;;;3.00;1.00;;;;;19.98;57.92;102098.90;110103;1267;18657;-35
2023/01/22 04:01:09;;;;;;;;;1.00;1.00;;;;;19.98;57.80;102101.06;110113;1261;20928;-33
2023/01/22 04:03:36;;;;;;;;;1.00;1.00;;;;;19.96;57.83;102102.27;110090;1253;20712;-33
2023/01/22 04:06:04;;;;;;;;;1.00;1.00;;;;;19.97;57.89;102101.35;110131;1260;19957;-34
2023/01/22 04:08:31;;;;;;;;;1.00;1.00;;;;;19.96;57.83;102101.64;110102;1267;19336;-34
2023/01/22 04:10:59;;;;;;;;;1.00;1.00;;;;;19.97;58.01;102107.88;110059;1254;23157;-34
2023/01/22 04:13:26;;;;;;;;;1.00;1.00;;;;;19.97;57.87;102104.07;110083;1267;18638;-34
2023/01/22 04:15:53;;;;;;;;;1.00;1.00;;;;;19.96;57.85;102106.82;110114;1267;19402;-34
2023/01/22 04:18:21;;;;;;;;;1.00;1.00;;;;;19.96;57.76;102103.59;110110;1263;20084;-34
2023/01/22 04:20:48;;;;;;;;;1.00;1.00;;;;;19.96;57.88;102101.44;110114;1267;18477;-34
2023/01/22 04:23:16;;;;;;;;;1.00;1.00;;;;;19.95;57.83;102100.06;110061;1267;19353;-34
2023/01/22 04:25:43;;;;;;;;;1.00;1.00;;;;;19.95;57.87;102102.17;110089;1267;18500;-33
2023/01/22 04:28:10;;;;;;;;;2.00;1.00;;;;;19.95;57.80;102098.38;110133;1267;19603;-34
2023/01/22 04:30:38;;;;;;;;;1.00;1.00;;;;;19.96;57.86;102101.61;110092;1253;20798;-33
2023/01/22 04:33:05;;;;;;;;;3.00;1.00;;;;;19.96;57.99;102099.27;110099;1260;19419;-34
2023/01/22 04:35:32;;;;;;;;;1.00;1.00;;;;;19.96;57.80;102099.75;110088;1253;21354;-34
2023/01/22 04:38:00;;;;;;;;;1.00;1.00;;;;;19.96;57.70;102098.11;110096;1253;19366;-34
2023/01/22 04:40:27;;;;;;;;;1.00;1.00;;;;;19.95;57.93;102096.22;110093;1254;18332;-33
2023/01/22 04:42:54;;;;;;;;;1.00;1.00;;;;;19.95;57.68;102099.11;110075;1267;18616;-35
2023/01/22 04:45:22;;;;;;;;;1.00;1.00;;;;;19.96;57.70;102108.10;110112;1254;20751;-33
2023/01/22 04:47:49;;;;;;;;;1.00;1.00;;;;;19.96;57.91;102107.62;110070;1267;22203;-34
2023/01/22 04:50:16;;;;;;;;;1.00;1.00;;;;;19.95;57.62;102111.19;110108;1253;20103;-34
2023/01/22 04:52:44;;;;;;;;;1.00;1.00;;;;;19.95;57.71;102119.28;110101;1254;20787;-34
2023/01/22 04:55:11;;;;;;;;;1.00;1.00;;;;;19.95;57.87;102116.41;110089;1267;22766;-34
2023/01/22 04:57:38;;;;;;;;;3.00;1.00;;;;;19.94;57.74;102117.37;110114;1267;18577;-35
2023/01/22 05:00:05;;;;;;;;;1.00;1.00;;;;;19.95;57.78;102122.75;110118;1267;19401;-34
2023/01/22 05:02:33;;;;;;;;;1.00;1.00;;;;;19.94;57.76;102126.83;110067;1267;23020;-35
2023/01/22 05:05:00;;;;;;;;;1.00;1.00;;;;;19.94;57.66;102126.27;110054;1267;19954;-33
2023/01/22 05:07:27;;;;;;;;;1.00;1.00;;;;;19.94;57.70;102126.48;110093;1261;19237;-33
2023/01/22 05:09:55;;;;;;;;;1.00;1.00;;;;;19.94;57.45;102125.39;110044;1254;18312;-33
2023/01/22 05:12:22;;;;;;;;;1.00;1.00;;;;;19.94;57.72;102131.92;109965;1253;18577;-33
2023/01/22 05:14:49;;;;;;;;;3.00;3.00;;;;;19.94;57.58;102135.88;109975;1253;21354;-34
2023/01/22 05:17:17;;;;;;;;;3.00;1.00;;;;;19.94;57.48;102138.05;109997;1267;18386;-34
2023/01/22 05:19:44;;;;;;;;;1.00;1.00;;;;;19.93;57.48;102139.59;110065;1267;18831;-34
2023/01/22 05:22:11;;;;;;;;;3.00;1.00;;;;;19.94;57.56;102138.45;110101;1253;20749;-34
2023/01/22 05:24:39;;;;;;;;;1.00;1.00;;;;;19.93;57.54;102137.63;110120;1267;20819;-34
2023/01/22 05:27:06;;;;;;;;;1.00;1.00;;;;;19.92;57.64;102140.95;110124;1253;20052;-34
2023/01/22 05:29:33;;;;;;;;;1.00;1.00;;;;;19.93;57.71;102143.64;110111;1267;19583;-32
2023/01/22 05:32:01;;;;;;;;;1.00;1.00;;;;;19.91;57.41;102146.48;110091;1267;22960;-33
2023/01/22 05:34:28;;;;;;;;;1.00;1.00;;;;;19.93;57.49;102149.96;110091;1267;18511;-33
2023/01/22 05:36:55;;;;;;;;;1.00;1.00;;;;;19.93;57.42;102149.60;110096;1267;20681;-33
2023/01/22 05:39:23;;;;;;;;;1.00;1.00;;;;;19.93;57.51;102149.97;110120;1267;19966;-34
2023/01/22 05:41:50;;;;;;;;;2.00;2.00;;;;;19.93;57.42;102150.34;110108;1267;18734;-33
2023/01/22 05:44:17;;;;;;;;;1.00;1.00;;;;;19.93;57.41;102154.48;110102;1260;20718;-33
2023/01/22 05:46:44;;;;;;;;;1.00;1.00;;;;;19.93;57.48;102158.90;110095;1267;22979;-33
2023/01/22 05:49:12;;;;;;;;;1.00;1.00;;;;;19.92;57.60;102161.26;109954;1253;19992;-33
2023/01/22 05:51:39;;;;;;;;;1.00;1.00;;;;;19.92;57.62;102163.11;109982;1263;22048;-35
2023/01/22 05:54:06;;;;;;;;;1.00;1.00;;;;;19.92;57.54;102165.45;110041;1253;19719;-33
2023/01/22 05:56:34;;;;;;;;;1.00;1.00;;;;;19.93;57.47;102170.67;109973;1252;20277;-33
2023/01/22 05:59:01;;;;;;;;;1.00;1.00;;;;;19.92;57.50;102169.98;109979;1254;20770;-34
2023/01/22 06:01:28;;;;;;;;;1.00;1.00;;;;;19.92;57.37;102169.48;109980;1254;19602;-34
2023/01/22 06:03:56;;;;;;;;;1.00;1.00;;;;;19.92;57.52;102172.53;109987;1267;22331;-35
2023/01/22 06:06:23;;;;;;;;;1.00;1.00;;;;;19.92;57.31;102176.14;110037;1267;21857;-35
2023/01/22 06:08:51;;;;;;;;;1.00;1.00;;;;;19.92;57.46;102180.52;110061;1253;19657;-34
2023/01/22 06:11:18;;;;;;;;;1.00;1.00;;;;;19.92;57.34;102180.74;110130;1267;18573;-34
2023/01/22 06:13:46;;;;;;;;;1.00;1.00;;;;;19.91;57.46;102182.45;110095;1267;19416;-34
2023/01/22 06:16:13;;;;;;;;;3.00;3.00;;;;;19.90;57.27;102181.73;110090;1267;18349;-34
2023/01/22 06:18:40;;;;;;;;;3.67;3.00;;;;;19.90;57.29;102189.05;110089;1253;20111;-34
2023/01/22 06:21:08;;;;;;;;;1.00;1.00;;;;;19.91;57.47;102189.90;110080;1253;20689;-35
2023/01/22 06:23:35;;;;;;;;;1.00;1.00;;;;;19.91;57.45;102196.23;110121;1253;22857;-33
2023/01/22 06:26:02;;;;;;;;;1.00;1.00;;;;;19.91;57.30;102199.47;110086;1253;20066;-34
2023/01/22 06:28:30;;;;;;;;;3.00;3.00;;;;;19.91;57.26;102198.61;110127;1267;20019;-34
2023/01/22 06:30:57;;;;;;;;;1.00;1.00;;;;;19.91;57.37;102204.02;110112;1267;18520;-34
2023/01/22 06:33:24;;;;;;;;;1.00;1.00;;;;;19.90;57.45;102211.88;110100;1267;22733;-34
2023/01/22 06:35:52;;;;;;;;;1.00;1.00;;;;;19.90;57.30;102214.11;110086;1267;19347;-34
2023/01/22 06:38:19;;;;;;;;;1.00;1.00;;;;;19.91;57.43;102216.35;110099;1253;19646;-34
2023/01/22 06:40:46;;;;;;;;;3.00;3.00;;;;;19.90;57.26;102221.13;110124;1267;18592;-34
2023/01/22 06:43:14;;;;;;;;;1.00;1.00;;;;;19.89;57.38;102223.05;110077;1267;19319;-34
2023/01/22 06:45:41;;;;;;;;;1.00;1.00;;;;;19.89;57.42;102226.83;110064;1267;19707;-33
2023/01/22 06:48:08;;;;;;;;;1.00;1.00;;;;;19.90;57.35;102231.89;110099;1260;19849;-34
2023/01/22 06:50:36;;;;;;;;;1.00;1.00;;;;;19.89;57.38;102236.63;110103;1260;20707;-34
2023/01/22 06:53:03;;;;;;;;;1.00;1.00;;;;;19.89;57.34;102236.34;110099;1267;18499;-35
2023/01/22 06:55:30;;;;;;;;;1.00;1.00;;;;;19.89;57.40;102234.50;110104;1253;22209;-33
2023/01/22 06:57:57;;;;;;;;;1.00;1.00;;;;;19.89;57.21;102240.52;110112;1254;20817;-34
2023/01/22 07:00:25;;;;;;;;;1.00;1.00;;;;;19.88;57.45;102245.98;110079;1260;19744;-35
2023/01/22 07:02:53;;;;;;;;;1.00;1.00;;;;;19.89;57.26;102245.07;110084;1267;18968;-34
2023/01/22 07:05:21;;;;;;;;;1.00;1.00;;;;;19.88;57.34;102249.60;110121;1253;21093;-34
2023/01/22 07:07:48;;;;;;;;;1.00;1.00;;;;;19.90;57.08;102247.30;110061;1263;20071;-35
2023/01/22 07:10:15;;;;;;;;;3.00;3.00;;;;;19.90;57.19;102249.48;110113;1267;18607;-34
2023/01/22 07:12:42;;;;;;;;;1.00;1.00;;;;;19.89;57.20;102249.02;110086;1267;22596;-34
2023/01/22 07:15:10;;;;;;;;;1.00;1.00;;;;;19.89;57.08;102251.03;110107;1254;18402;-34
2023/01/22 07:17:37;;;;;;;;;3.00;3.00;;;;;19.90;57.18;102256.70;110077;1253;20063;-34
2023/01/22 07:20:05;;;;;;;;;1.00;1.00;;;;;19.90;57.12;102259.08;110088;1267;19317;-34
2023/01/22 07:22:32;;;;;;;;;1.00;1.00;;;;;19.90;57.06;102263.47;110079;1267;18382;-34
2023/01/22 07:24:59;;;;;;;;;4.00;3.00;;;;;19.89;57.32;102261.34;110124;1267;21465;-33
2023/01/22 07:27:27;;;;;;;;;1.00;1.00;;;;;19.89;57.30;102264.06;110094;1253;23527;-34
2023/01/22 07:29:54;;;;;;;;;1.00;1.00;;;;;19.89;57.38;102268.45;110103;1267;18372;-34
2023/01/22 07:32:21;;;;;;;;;1.00;1.00;;;;;19.88;57.37;102269.59;110101;1254;20044;-33
2023/01/22 07:34:49;;;;;;;;;1.00;1.00;;;;;19.90;57.08;102275.90;110058;1253;22724;-33
2023/01/22 07:37:16;;;;;;;;;1.00;1.00;;;;;19.91;57.53;102272.41;110082;1267;19509;-34
2023/01/22 07:39:43;;;;;;;;;4.00;4.00;;;;;19.92;57.22;102277.20;110098;1254;20045;-33
2023/01/22 07:42:11;;;;;;;;;3.00;3.00;;;;;19.92;57.28;102277.92;110105;1253;20966;-34
2023/01/22 07:44:39;;;;;;;;;3.00;3.00;;;;;19.91;57.19;102285.44;110028;1267;91192;-34
2023/01/22 07:47:06;;;;;;;;;1.00;1.00;;;;;19.91;57.21;102287.29;110071;1267;19891;-34
2023/01/22 07:49:34;;;;;;;;;3.00;3.00;;;;;19.89;57.27;102285.23;110053;1267;19423;-33
2023/01/22 07:52:01;;;;;;;;;3.00;1.00;;;;;19.89;57.51;102288.33;110061;1267;18557;-35
2023/01/22 07:54:28;;;;;;;;;1.00;1.00;;;;;19.88;57.31;102288.07;110083;1267;19304;-36
2023/01/22 07:56:56;;;;;;;;;1.00;1.00;;;;;19.90;57.40;102286.48;110031;1253;20702;-33
2023/01/22 07:59:23;;;;;;;;;2.33;2.33;;;;;19.89;57.10;102283.09;109921;1267;18395;-32
2023/01/22 08:01:50;;;;;;;;;1.00;1.00;;;;;19.90;57.39;102282.63;110034;1252;21250;-34
2023/01/22 08:04:18;;;;;;;;;1.00;1.00;;;;;19.90;57.33;102283.05;110066;1267;20808;-33
2023/01/22 08:06:45;;;;;;;;;1.00;1.00;;;;;19.89;57.29;102283.46;110081;1267;18552;-33
2023/01/22 08:09:14;;;;;;;;;1.00;1.00;;;;;19.90;57.41;102284.81;110087;1254;21559;-33
2023/01/22 08:11:41;;;;;;;;;1.00;1.00;;;;;19.89;57.37;102287.45;109978;1253;20769;-35
2023/01/22 08:14:09;;;;;;;;;1.00;1.00;;;;;19.91;57.36;102289.48;110014;1254;19675;-36
2023/01/22 08:16:36;;;;;;;;;3.00;3.00;;;;;19.93;57.39;102291.66;110069;1254;21260;-34
2023/01/22 08:19:03;;;;;;;;;3.00;3.00;;;;;19.94;57.55;102298.85;110071;1267;19337;-34
2023/01/22 08:21:31;;;;;;;;;40.00;36.00;;;;;19.96;57.36;102301.73;110081;1267;22143;-33
2023/01/22 08:23:58;;;;;;;;;45.00;38.00;;;;;19.99;57.96;102302.54;110050;1267;22194;-34
2023/01/22 08:26:25;;;;;;;;;52.00;40.00;;;;;20.08;58.62;102307.08;110038;1267;20688;-34
2023/01/22 08:28:53;;;;;;;;;37.00;33.00;;;;;20.11;58.99;102311.33;109948;1267;18583;-34
2023/01/22 08:31:20;;;;;;;;;27.00;24.00;;;;;20.11;59.39;102306.80;109964;1267;22576;-34
2023/01/22 08:33:47;;;;;;;;;25.00;21.00;;;;;20.11;59.59;102309.12;110011;1267;19362;-34
2023/01/22 08:36:15;;;;;;;;;20.00;18.50;;;;;20.11;59.69;102312.93;110086;1267;22280;-34
2023/01/22 08:38:42;;;;;;;;;23.50;18.50;;;;;20.12;59.59;102314.34;110060;1254;20122;-34
2023/01/22 08:41:09;;;;;;;;;16.00;15.00;;;;;20.11;59.64;102315.34;110061;1254;20884;-34
2023/01/22 08:43:37;;;;;;;;;12.50;11.00;;;;;20.12;59.56;102322.45;110075;1253;22797;-35
2023/01/22 08:46:04;;;;;;;;;13.50;11.00;;;;;20.14;59.71;102317.20;110097;1253;20186;-35
2023/01/22 08:48:31;;;;;;;;;10.00;10.00;;;;;20.15;59.62;102320.42;110071;1253;22310;-34
2023/01/22 08:50:58;;;;;;;;;10.00;9.00;;;;;20.16;59.73;102321.74;110093;1253;20035;-34
2023/01/22 08:53:26;;;;;;;;;7.00;7.00;;;;;20.16;59.84;102327.08;110079;1267;18665;-35
2023/01/22 08:55:53;;;;;;;;;9.00;7.00;;;;;20.15;59.94;102332.35;110093;1253;20979;-36
2023/01/22 08:58:23;;;;;;;;;10.00;8.00;;;;;20.16;59.85;102335.91;110079;1252;20866;-33
2023/01/22 09:00:50;;;;;;;;;6.00;6.00;;;;;20.20;60.19;102339.23;110062;1253;18692;-34
2023/01/22 09:03:17;;;;;;;;;5.00;5.00;;;;;20.22;60.27;102339.19;110090;1253;21085;-34
2023/01/22 09:05:45;;;;;;;;;4.00;4.00;;;;;20.23;60.42;102342.74;110059;1267;20843;-33
2023/01/22 09:08:12;;;;;;;;;6.00;5.50;;;;;20.24;60.34;102345.94;110032;1260;23640;-34
2023/01/22 09:13:04;;;;;;;;;3.50;3.50;;;;;20.24;60.40;102352.84;110305;1260;18034;-35
2023/01/22 09:15:32;;;;;;;;;4.00;4.00;;;;;20.27;60.17;102351.59;110266;1266;21519;-36
2023/01/22 09:17:59;;;;;;;;;7.00;5.00;;;;;20.27;60.18;102352.90;110309;1265;22617;-35
2023/01/22 09:20:27;;;;;;;;;4.00;4.00;;;;;20.28;60.30;102358.29;110305;1265;18557;-34
2023/01/22 09:22:54;;;;;;;;;7.00;7.00;;;;;20.31;60.04;102359.67;110329;1250;21557;-35
2023/01/22 09:25:21;;;;;;;;;4.00;4.00;;;;;20.32;60.30;102357.71;110354;1249;20752;-35
2023/01/22 09:27:49;;;;;;;;;4.00;4.00;;;;;20.34;60.28;102361.25;110354;1251;19649;-35
2023/01/22 09:30:16;;;;;;;;;4.00;4.00;;;;;20.35;60.59;102360.77;110374;1265;22518;-35
2023/01/22 09:32:43;;;;;;;;;5.00;4.00;;;;;20.34;60.67;102358.69;110341;1251;20746;-35
2023/01/22 09:35:11;;;;;;;;;3.50;2.00;;;;;20.36;60.90;102362.08;110369;1266;19835;-34
2023/01/22 09:37:38;;;;;;;;;4.00;4.00;;;;;20.38;60.74;102362.14;110310;1249;20124;-33
2023/01/22 09:40:05;;;;;;;;;2.00;2.00;;;;;20.38;60.86;102361.56;110321;1251;20783;-34
2023/01/22 09:42:33;;;;;;;;;4.50;4.00;;;;;20.39;60.80;102364.23;110323;1266;18442;-34
2023/01/22 09:45:00;;;;;;;;;2.50;2.50;;;;;20.37;60.74;102361.48;110324;1265;18650;-34
2023/01/22 09:47:27;;;;;;;;;2.00;2.00;;;;;20.38;60.88;102366.06;110345;1251;20748;-34
2023/01/22 09:49:54;;;;;;;;;2.00;2.00;;;;;20.38;60.93;102366.98;110315;1265;18380;-34
2023/01/22 09:52:22;;;;;;;;;4.00;4.00;;;;;20.37;60.99;102367.09;110274;1250;20105;-33
2023/01/22 09:54:49;;;;;;;;;2.00;2.00;;;;;20.37;60.86;102367.82;110319;1251;22004;-34
2023/01/22 09:57:16;;;;;;;;;2.33;2.00;;;;;20.38;61.01;102369.59;110337;1251;19700;-33
2023/01/22 09:59:44;;;;;;;;;2.00;2.00;;;;;20.38;60.89;102366.53;110304;1251;20040;-35
2023/01/22 10:02:11;;;;;;;;;4.00;4.00;;;;;20.37;60.90;102367.13;110238;1251;20656;-33
2023/01/22 10:04:38;;;;;;;;;4.00;4.00;;;;;20.36;60.67;102370.14;110177;1251;20048;-32
2023/01/22 10:07:06;;;;;;;;;2.00;2.00;;;;;20.37;60.57;102371.29;110238;1250;20021;-32
2023/01/22 10:09:33;;;;;;;;;2.00;2.00;;;;;20.38;60.49;102373.69;110258;1265;19513;-33
2023/01/22 10:12:00;;;;;;;;;2.00;2.00;;;;;20.40;60.58;102371.71;110337;1265;18390;-35
2023/01/22 10:14:28;;;;;;;;;4.00;4.00;;;;;20.38;60.30;102372.98;110355;1250;20003;-34
2023/01/22 10:16:55;;;;;;;;;4.00;2.00;;;;;20.37;60.31;102373.64;110336;1257;20789;-34
2023/01/22 10:19:22;;;;;;;;;4.00;4.00;;;;;20.40;60.21;102375.95;110323;1257;19565;-35
2023/01/22 10:21:50;;;;;;;;;4.00;4.00;;;;;20.39;60.42;102375.29;110346;1265;18634;-35
2023/01/22 10:24:17;;;;;;;;;5.00;3.00;;;;;20.40;60.44;102378.67;110299;1257;20675;-35
2023/01/22 10:26:44;;;;;;;;;2.00;2.00;;;;;20.37;60.46;102378.02;110191;1250;22249;-34
2023/01/22 10:29:12;;;;;;;;;2.50;2.50;;;;;20.36;60.37;102379.91;110325;1251;19932;-34
2023/01/22 10:31:39;;;;;;;;;5.00;4.50;;;;;20.36;60.36;102381.35;110328;1250;20817;-33
2023/01/22 10:34:07;;;;;;;;;4.00;3.67;;;;;20.36;60.34;102382.09;110314;1250;22330;-35
2023/01/22 10:36:34;;;;;;;;;3.00;3.00;;;;;20.33;60.40;102378.30;110238;1257;18794;-34
2023/01/22 10:39:01;;;;;;;;;6.00;4.00;;;;;20.30;60.39;102379.85;111485;1250;20668;-35
2023/01/22 10:41:29;;;;;;;;;3.00;3.00;;;;;20.31;60.42;102376.41;112106;1265;18261;-35
2023/01/22 10:43:56;;;;;;;;;3.67;3.00;;;;;20.34;60.19;102377.20;112073;1265;18579;-35
2023/01/22 10:46:25;;;;;;;;;3.00;3.00;;;;;20.37;60.17;102375.27;112071;1265;19284;-35
2023/01/22 10:48:52;;;;;;;;;63.50;45.50;;;;;20.37;60.17;102372.23;112064;1265;18235;-36
2023/01/22 10:51:19;;;;;;;;;117.50;84.50;;;;;20.40;60.33;102375.38;112102;1249;21319;-36
2023/01/22 10:53:46;;;;;;;;;110.00;83.00;;;;;20.38;60.34;102376.13;112055;1250;20741;-36
2023/01/22 10:56:14;;;;;;;;;96.00;70.00;;;;;20.36;60.19;102377.52;112041;1250;20456;-36
2023/01/22 10:58:41;;;;;;;;;101.00;72.00;;;;;20.34;60.32;102376.24;112043;1250;21306;-35
2023/01/22 11:01:08;;;;;;;;;93.00;70.00;;;;;20.33;60.05;102380.69;112082;1257;20662;-35
2023/01/22 11:03:36;;;;;;;;;84.50;63.00;;;;;20.32;59.89;102377.70;112050;1257;21512;-35
2023/01/22 11:06:03;;;;;;;;;78.00;60.33;;;;;20.34;59.83;102373.73;112082;1251;20132;-36
2023/01/22 11:08:30;;;;;;;;;71.00;53.00;;;;;20.37;59.95;102376.33;112072;1265;19509;-35
2023/01/22 11:10:58;;;;;;;;;68.00;53.00;;;;;20.38;59.93;102371.75;112109;1250;20044;-35
2023/01/22 11:13:25;;;;;;;;;56.50;45.00;;;;;20.40;60.01;102374.83;112108;1250;20148;-36
2023/01/22 11:15:52;;;;;;;;;49.00;41.50;;;;;20.42;60.25;102373.05;112138;1265;19212;-35
2023/01/22 11:18:20;;;;;;;;;47.50;39.00;;;;;20.40;60.16;102372.46;112101;1250;20083;-35
2023/01/22 11:20:47;;;;;;;;;38.50;31.00;;;;;20.43;60.32;102370.94;112089;1249;20130;-35
2023/01/22 11:23:14;;;;;;;;;38.50;28.50;;;;;20.46;60.67;102372.48;112088;1265;19488;-35
2023/01/22 11:25:42;;;;;;;;;30.67;26.33;;;;;20.45;60.76;102369.30;112058;1265;19896;-35
2023/01/22 11:28:11;;;;;;;;;24.50;22.00;;;;;20.45;60.81;102375.47;112063;1265;20087;-35
2023/01/22 11:30:38;;;;;;;;;21.00;18.00;;;;;20.45;60.79;102380.74;112064;1265;19345;-35